createdAt,value
2018-09-27T00:01:28.748Z,5.23
2018-09-27T00:03:56.871Z,5.00
2018-09-27T00:06:24.979Z,4.63
2018-09-27T00:08:53.103Z,4.30
2018-09-27T00:11:21.228Z,4.90
2018-09-27T00:13:49.363Z,4.20
2018-09-27T00:16:17.476Z,4.37
2018-09-27T00:18:45.588Z,4.10
2018-09-27T00:21:13.706Z,3.83
2018-09-27T00:23:41.839Z,3.97
2018-09-27T00:26:09.942Z,4.10
2018-09-27T00:28:38.099Z,3.80
2018-09-27T00:31:06.412Z,4.27
2018-09-27T00:33:34.525Z,3.93
2018-09-27T00:36:02.631Z,3.43
2018-09-27T00:38:30.748Z,3.50
2018-09-27T00:40:58.996Z,3.90
2018-09-27T00:43:27.111Z,3.73
2018-09-27T00:45:55.218Z,4.40
2018-09-27T00:48:23.341Z,3.40
2018-09-27T00:50:51.451Z,3.20
2018-09-27T00:53:19.579Z,3.47
2018-09-27T00:55:47.703Z,3.70
2018-09-27T00:58:15.828Z,3.07
2018-09-27T01:00:43.941Z,3.50
2018-09-27T01:03:12.058Z,3.57
2018-09-27T01:05:40.180Z,2.90
2018-09-27T01:08:08.286Z,3.20
2018-09-27T01:10:36.495Z,3.10
2018-09-27T01:13:04.626Z,3.77
2018-09-27T01:15:32.731Z,3.07
2018-09-27T01:18:00.831Z,3.10
2018-09-27T01:20:28.958Z,3.07
2018-09-27T01:22:57.076Z,2.90
2018-09-27T01:25:25.174Z,3.87
2018-09-27T01:27:53.286Z,2.63
2018-09-27T01:30:21.412Z,2.73
2018-09-27T01:32:49.545Z,3.93
2018-09-27T01:35:17.654Z,3.10
2018-09-27T01:37:45.774Z,3.40
2018-09-27T01:40:13.890Z,3.30
2018-09-27T01:42:42.001Z,2.63
2018-09-27T01:45:10.123Z,3.57
2018-09-27T01:47:38.246Z,4.00
2018-09-27T01:50:06.464Z,3.97
2018-09-27T01:52:34.568Z,3.60
2018-09-27T01:55:02.680Z,4.20
2018-09-27T01:57:30.878Z,4.20
2018-09-27T01:59:58.995Z,4.47
2018-09-27T02:02:27.115Z,3.47
2018-09-27T02:04:55.235Z,3.67
2018-09-27T02:07:23.331Z,3.70
2018-09-27T02:09:51.469Z,4.07
2018-09-27T02:12:19.587Z,3.60
2018-09-27T02:14:47.719Z,3.67
2018-09-27T02:17:15.825Z,4.50
2018-09-27T02:19:43.933Z,3.80
2018-09-27T02:22:12.043Z,3.80
2018-09-27T02:24:40.199Z,4.53
2018-09-27T02:27:08.302Z,3.97
2018-09-27T02:29:36.423Z,3.70
2018-09-27T02:32:04.575Z,3.83
2018-09-27T02:34:32.716Z,3.50
2018-09-27T02:37:00.856Z,3.80
2018-09-27T02:39:29.007Z,3.80
2018-09-27T02:41:57.147Z,4.20
2018-09-27T02:44:25.300Z,4.27
2018-09-27T02:46:53.432Z,3.57
2018-09-27T02:49:21.571Z,4.40
2018-09-27T02:51:49.700Z,3.87
2018-09-27T02:54:17.854Z,3.80
2018-09-27T02:56:46.037Z,4.37
2018-09-27T02:59:14.174Z,4.10
2018-09-27T03:01:42.324Z,4.27
2018-09-27T03:04:10.474Z,3.73
2018-09-27T03:06:38.612Z,3.80
2018-09-27T03:09:08.587Z,3.90
2018-09-27T03:11:36.750Z,3.67
2018-09-27T03:14:04.885Z,4.07
2018-09-27T03:16:33.023Z,4.00
2018-09-27T03:19:01.173Z,3.90
2018-09-27T03:21:29.320Z,3.43
2018-09-27T03:23:57.450Z,3.60
2018-09-27T03:26:25.592Z,3.40
2018-09-27T03:28:53.728Z,3.27
2018-09-27T03:31:21.861Z,3.37
2018-09-27T03:33:50.009Z,3.30
2018-09-27T03:36:18.181Z,3.40
2018-09-27T03:38:46.347Z,3.80
2018-09-27T03:41:14.479Z,3.60
2018-09-27T03:43:42.780Z,4.00
2018-09-27T03:46:10.941Z,3.60
2018-09-27T03:48:39.085Z,3.00
2018-09-27T03:51:07.344Z,3.03
2018-09-27T03:53:35.507Z,3.70
2018-09-27T03:56:03.670Z,4.33
2018-09-27T03:58:31.808Z,3.10
2018-09-27T04:00:59.951Z,4.03
2018-09-27T04:03:28.141Z,2.97
2018-09-27T04:05:56.276Z,3.50
2018-09-27T04:08:24.432Z,2.60
2018-09-27T04:10:52.594Z,3.20
2018-09-27T04:13:20.732Z,3.47
2018-09-27T04:15:48.930Z,4.07
2018-09-27T04:18:17.044Z,3.80
2018-09-27T04:20:49.824Z,3.60
2018-09-27T04:23:18.812Z,3.43
2018-09-27T04:25:46.961Z,4.00
2018-09-27T04:28:15.095Z,3.23
2018-09-27T04:30:43.226Z,2.93
2018-09-27T04:33:11.358Z,3.60
2018-09-27T04:35:39.501Z,3.20
2018-09-27T04:38:07.704Z,3.00
2018-09-27T04:40:35.874Z,2.77
2018-09-27T04:43:04.347Z,2.97
2018-09-27T04:45:32.504Z,3.00
2018-09-27T04:48:00.676Z,3.67
2018-09-27T04:50:29.093Z,3.97
2018-09-27T04:52:57.243Z,3.23
2018-09-27T04:55:25.412Z,3.57
2018-09-27T04:57:53.578Z,2.93
2018-09-27T05:00:21.750Z,3.10
2018-09-27T05:02:49.887Z,3.67
2018-09-27T05:05:18.032Z,3.40
2018-09-27T05:07:46.290Z,3.20
2018-09-27T05:10:14.411Z,2.97
2018-09-27T05:12:42.576Z,2.80
2018-09-27T05:15:10.703Z,3.00
2018-09-27T05:17:38.844Z,3.63
2018-09-27T05:20:06.972Z,2.90
2018-09-27T05:22:35.169Z,3.60
2018-09-27T05:25:03.318Z,3.90
2018-09-27T05:27:31.528Z,4.00
2018-09-27T05:29:59.612Z,3.40
2018-09-27T05:32:27.751Z,3.97
2018-09-27T05:34:55.928Z,3.47
2018-09-27T05:37:24.078Z,3.87
2018-09-27T05:39:52.235Z,3.57
2018-09-27T05:42:20.379Z,4.60
2018-09-27T05:44:48.528Z,3.60
2018-09-27T05:47:16.680Z,4.40
2018-09-27T05:49:44.872Z,3.97
2018-09-27T05:52:13.001Z,4.47
2018-09-27T05:54:41.136Z,4.73
2018-09-27T05:57:09.274Z,4.53
2018-09-27T05:59:37.413Z,5.50
2018-09-27T06:02:05.814Z,4.30
2018-09-27T06:04:33.936Z,4.93
2018-09-27T06:07:02.072Z,4.70
2018-09-27T06:09:30.216Z,4.10
2018-09-27T06:11:58.408Z,4.50
2018-09-27T06:14:26.540Z,5.03
2018-09-27T06:16:54.680Z,4.40
2018-09-27T06:19:22.863Z,4.63
2018-09-27T06:21:50.976Z,4.63
2018-09-27T06:24:19.123Z,5.00
2018-09-27T06:26:47.304Z,4.70
2018-09-27T06:29:15.430Z,5.20
2018-09-27T06:31:43.595Z,4.27
2018-09-27T06:34:11.735Z,4.43
2018-09-27T06:36:39.867Z,4.40
2018-09-27T06:39:09.303Z,4.43
2018-09-27T06:41:37.432Z,4.07
2018-09-27T06:44:05.572Z,3.93
2018-09-27T06:46:33.714Z,3.57
2018-09-27T06:49:01.849Z,3.97
2018-09-27T06:51:30.061Z,4.70
2018-09-27T06:53:58.203Z,3.90
2018-09-27T06:56:26.402Z,4.90
2018-09-27T06:58:54.508Z,4.50
2018-09-27T07:01:22.653Z,4.07
2018-09-27T07:03:50.790Z,4.57
2018-09-27T07:06:18.920Z,4.17
2018-09-27T07:08:47.092Z,4.00
2018-09-27T07:11:15.235Z,4.87
2018-09-27T07:13:43.383Z,4.10
2018-09-27T07:16:11.518Z,4.73
2018-09-27T07:18:39.708Z,5.10
2018-09-27T07:21:07.807Z,4.70
2018-09-27T07:23:35.960Z,4.50
2018-09-27T07:26:04.921Z,5.60
2018-09-27T07:28:33.071Z,4.00
2018-09-27T07:31:01.221Z,4.10
2018-09-27T07:33:29.391Z,4.40
2018-09-27T07:35:57.608Z,5.00
2018-09-27T07:38:25.801Z,4.97
2018-09-27T07:40:53.897Z,5.00
2018-09-27T07:43:22.057Z,5.10
2018-09-27T07:45:50.236Z,4.40
2018-09-27T07:48:25.062Z,4.37
2018-09-27T07:50:53.151Z,5.03
2018-09-27T07:53:21.308Z,5.10
2018-09-27T07:55:49.435Z,4.43
2018-09-27T07:58:17.577Z,3.90
2018-09-27T08:00:45.712Z,5.70
2018-09-27T08:03:13.857Z,5.40
2018-09-27T08:05:41.993Z,4.57
2018-09-27T08:08:10.123Z,5.03
2018-09-27T08:10:38.300Z,5.37
2018-09-27T08:13:06.463Z,4.73
2018-09-27T08:15:34.588Z,5.23
2018-09-27T08:18:02.758Z,4.57
2018-09-27T08:20:30.968Z,4.53
2018-09-27T08:22:59.065Z,5.63
2018-09-27T08:25:27.207Z,4.87
2018-09-27T08:27:55.341Z,2.60
2018-09-27T08:30:23.823Z,2.93
2018-09-27T08:32:51.956Z,3.67
2018-09-27T08:35:20.092Z,3.67
2018-09-27T08:37:48.270Z,3.07
2018-09-27T08:40:16.412Z,3.50
2018-09-27T08:42:44.541Z,2.80
2018-09-27T08:45:13.060Z,3.27
2018-09-27T08:47:40.920Z,2.80
2018-09-27T08:50:09.064Z,3.20
2018-09-27T08:52:37.194Z,3.73
2018-09-27T08:55:05.564Z,3.33
2018-09-27T08:57:33.738Z,3.17
2018-09-27T09:00:01.831Z,4.00
2018-09-27T09:02:30.044Z,3.40
2018-09-27T09:04:58.176Z,3.70
2018-09-27T09:07:26.305Z,3.90
2018-09-27T09:09:54.455Z,4.40
2018-09-27T09:12:22.597Z,4.13
2018-09-27T09:14:50.751Z,3.67
2018-09-27T09:17:18.900Z,3.77
2018-09-27T09:19:47.057Z,4.27
2018-09-27T09:22:15.190Z,3.73
2018-09-27T09:24:43.423Z,4.20
2018-09-27T09:27:11.500Z,4.20
2018-09-27T09:29:39.695Z,4.37
2018-09-27T09:32:07.860Z,4.40
2018-09-27T09:34:36.264Z,4.23
2018-09-27T09:37:04.428Z,4.60
2018-09-27T09:39:32.568Z,4.43
2018-09-27T09:42:00.701Z,3.40
2018-09-27T09:44:28.841Z,4.10
2018-09-27T09:46:57.012Z,4.77
2018-09-27T09:49:25.171Z,4.83
2018-09-27T09:51:53.296Z,4.50
2018-09-27T09:54:21.446Z,5.33
2018-09-27T09:56:49.574Z,4.70
2018-09-27T09:59:17.720Z,5.87
2018-09-27T10:01:45.847Z,4.67
2018-09-27T10:04:14.001Z,5.00
2018-09-27T10:06:42.175Z,5.73
2018-09-27T10:09:10.931Z,5.07
2018-09-27T10:11:39.060Z,5.07
2018-09-27T10:14:07.332Z,5.10
2018-09-27T10:16:35.962Z,4.80
2018-09-27T10:19:04.107Z,5.03
2018-09-27T10:21:32.505Z,4.27
2018-09-27T10:24:00.610Z,4.27
2018-09-27T10:26:28.757Z,4.40
2018-09-27T10:28:56.907Z,4.10
2018-09-27T10:31:25.059Z,4.60
2018-09-27T10:33:53.208Z,3.43
2018-09-27T10:36:21.348Z,4.10
2018-09-27T10:38:49.483Z,3.20
2018-09-27T10:41:17.647Z,3.60
2018-09-27T10:43:45.806Z,3.10
2018-09-27T10:46:13.969Z,3.10
2018-09-27T10:48:42.086Z,4.10
2018-09-27T10:51:10.275Z,3.67
2018-09-27T10:53:38.383Z,3.53
2018-09-27T10:56:06.607Z,3.83
2018-09-27T10:58:34.747Z,3.30
2018-09-27T11:01:02.991Z,3.27
2018-09-27T11:03:31.125Z,2.90
2018-09-27T11:05:59.279Z,3.20
2018-09-27T11:08:27.430Z,3.37
2018-09-27T11:10:55.605Z,2.80
2018-09-27T11:13:23.760Z,3.30
2018-09-27T11:15:51.895Z,3.37
2018-09-27T11:18:20.039Z,3.10
2018-09-27T11:20:48.197Z,2.57
2018-09-27T11:23:16.334Z,2.97
2018-09-27T11:25:44.476Z,1.70
2018-09-27T11:28:12.603Z,1.60
2018-09-27T11:30:40.752Z,1.93
2018-09-27T11:33:08.982Z,1.70
2018-09-27T11:35:37.038Z,1.50
2018-09-27T11:38:05.208Z,1.40
2018-09-27T11:40:33.349Z,1.67
2018-09-27T11:43:01.474Z,1.57
2018-09-27T11:45:29.618Z,1.60
2018-09-27T11:47:57.757Z,1.30
2018-09-27T11:50:25.891Z,1.00
2018-09-27T11:52:54.072Z,1.10
2018-09-27T11:55:22.196Z,0.90
2018-09-27T11:57:50.365Z,0.90
2018-09-27T12:00:18.503Z,1.33
2018-09-27T12:02:46.683Z,1.30
2018-09-27T12:05:14.820Z,1.00
2018-09-27T12:07:43.110Z,1.27
2018-09-27T12:10:11.118Z,0.63
2018-09-27T12:12:39.264Z,0.70
2018-09-27T12:15:07.652Z,1.00
2018-09-27T12:17:35.825Z,0.87
2018-09-27T12:20:04.568Z,0.77
2018-09-27T12:22:32.657Z,0.90
2018-09-27T12:25:00.805Z,0.80
2018-09-27T12:27:28.943Z,1.13
2018-09-27T12:29:57.080Z,0.90
2018-09-27T12:32:25.291Z,1.00
2018-09-27T12:34:53.434Z,0.90
2018-09-27T12:37:21.568Z,0.60
2018-09-27T12:39:49.712Z,0.90
2018-09-27T12:42:17.963Z,0.90
2018-09-27T12:44:46.031Z,1.00
2018-09-27T12:47:14.167Z,0.97
2018-09-27T12:49:42.303Z,0.90
2018-09-27T12:52:10.673Z,0.63
2018-09-27T12:54:38.596Z,0.90
2018-09-27T12:57:06.979Z,0.83
2018-09-27T12:59:35.115Z,1.00
2018-09-27T13:02:03.400Z,0.80
2018-09-27T13:04:31.413Z,0.80
2018-09-27T13:06:59.591Z,1.03
2018-09-27T13:09:27.939Z,1.30
2018-09-27T13:11:55.930Z,0.87
2018-09-27T13:14:24.277Z,0.87
2018-09-27T13:16:52.392Z,1.30
2018-09-27T13:19:20.578Z,0.80
2018-09-27T13:21:48.662Z,0.90
2018-09-27T13:24:16.811Z,1.10
2018-09-27T13:26:45.036Z,0.70
2018-09-27T13:29:13.132Z,0.80
2018-09-27T13:31:41.290Z,0.93
2018-09-27T13:34:09.496Z,0.93
2018-09-27T13:36:37.564Z,1.10
2018-09-27T13:39:07.835Z,1.30
2018-09-27T13:41:36.222Z,0.80
2018-09-27T13:44:04.356Z,1.10
2018-09-27T13:46:32.523Z,1.00
2018-09-27T13:49:00.644Z,0.70
2018-09-27T13:51:28.771Z,0.70
2018-09-27T13:53:56.919Z,0.87
2018-09-27T13:56:25.059Z,0.97
2018-09-27T13:58:53.327Z,0.83
2018-09-27T14:01:21.489Z,0.70
2018-09-27T14:03:49.630Z,0.70
2018-09-27T14:06:17.764Z,0.67
2018-09-27T14:08:45.935Z,0.70
2018-09-27T14:11:14.060Z,1.03
2018-09-27T14:13:42.216Z,0.97
2018-09-27T14:16:10.348Z,0.80
2018-09-27T14:18:38.488Z,0.70
2018-09-27T14:21:06.619Z,1.23
2018-09-27T14:23:34.784Z,0.63
2018-09-27T14:26:02.940Z,0.80
2018-09-27T14:28:31.082Z,0.70
2018-09-27T14:30:59.298Z,0.60
2018-09-27T14:33:27.448Z,0.80
2018-09-27T14:35:55.584Z,1.07
2018-09-27T14:38:23.726Z,0.73
2018-09-27T14:40:51.954Z,0.80
2018-09-27T14:43:20.071Z,1.00
2018-09-27T14:45:48.515Z,0.60
2018-09-27T14:48:16.664Z,0.80
2018-09-27T14:50:44.830Z,0.80
2018-09-27T14:53:12.976Z,0.90
2018-09-27T14:55:41.111Z,0.60
2018-09-27T14:58:09.246Z,0.90
2018-09-27T15:00:37.436Z,0.80
2018-09-27T15:03:05.527Z,0.80
2018-09-27T15:05:33.671Z,0.53
2018-09-27T15:08:01.812Z,0.70
2018-09-27T15:10:30.009Z,0.70
2018-09-27T15:12:58.146Z,0.93
2018-09-27T15:15:26.361Z,0.80
2018-09-27T15:17:54.556Z,0.70
2018-09-27T15:20:22.663Z,0.50
2018-09-27T15:22:50.790Z,0.93
2018-09-27T15:25:19.155Z,0.70
2018-09-27T15:27:47.325Z,0.80
2018-09-27T15:30:15.472Z,0.50
2018-09-27T15:32:43.830Z,1.00
2018-09-27T15:35:11.980Z,0.83
2018-09-27T15:37:40.137Z,0.80
2018-09-27T15:40:08.287Z,0.60
2018-09-27T15:42:36.424Z,0.87
2018-09-27T15:45:04.567Z,0.83
2018-09-27T15:47:32.728Z,0.87
2018-09-27T15:50:00.869Z,1.10
2018-09-27T15:52:28.997Z,0.90
2018-09-27T15:54:57.171Z,0.87
2018-09-27T15:57:25.299Z,0.90
2018-09-27T15:59:53.432Z,1.10
2018-09-27T16:02:21.571Z,1.07
2018-09-27T16:04:49.711Z,0.80
2018-09-27T16:07:17.877Z,0.80
2018-09-27T16:09:46.025Z,0.80
2018-09-27T16:12:14.171Z,1.10
2018-09-27T16:14:42.344Z,0.93
2018-09-27T16:17:10.475Z,1.10
2018-09-27T16:19:38.622Z,1.03
2018-09-27T16:22:06.869Z,0.93
2018-09-27T16:24:34.992Z,1.03
2018-09-27T16:27:03.180Z,1.03
2018-09-27T16:29:31.335Z,0.90
2018-09-27T16:31:59.469Z,0.97
2018-09-27T16:34:27.624Z,1.10
2018-09-27T16:36:55.772Z,0.97
2018-09-27T16:39:23.924Z,0.87
2018-09-27T16:41:52.073Z,1.10
2018-09-27T16:44:20.231Z,1.20
2018-09-27T16:46:48.530Z,0.90
2018-09-27T16:49:16.624Z,0.97
2018-09-27T16:51:44.767Z,1.07
2018-09-27T16:54:12.914Z,1.00
2018-09-27T16:56:41.076Z,1.13
2018-09-27T16:59:09.215Z,1.20
2018-09-27T17:01:37.355Z,1.53
2018-09-27T17:04:05.500Z,1.40
2018-09-27T17:06:33.671Z,1.60
2018-09-27T17:09:01.808Z,1.40
2018-09-27T17:11:29.944Z,1.20
2018-09-27T17:13:58.085Z,1.17
2018-09-27T17:16:26.274Z,1.20
2018-09-27T17:18:54.382Z,1.27
2018-09-27T17:21:22.515Z,1.10
2018-09-27T17:23:50.648Z,1.47
2018-09-27T17:26:18.798Z,1.20
2018-09-27T17:28:46.932Z,1.40
2018-09-27T17:31:15.081Z,1.03
2018-09-27T17:33:43.221Z,1.20
2018-09-27T17:36:11.376Z,1.10
2018-09-27T17:38:39.519Z,1.23
2018-09-27T17:41:08.243Z,1.17
2018-09-27T17:43:36.430Z,1.83
2018-09-27T17:46:04.621Z,1.20
2018-09-27T17:48:32.772Z,1.10
2018-09-27T17:51:00.912Z,3.13
2018-09-27T17:53:29.168Z,1.53
2018-09-27T17:55:57.225Z,1.37
2018-09-27T17:58:25.354Z,1.63
2018-09-27T18:00:53.491Z,1.20
2018-09-27T18:03:21.638Z,1.60
2018-09-27T18:05:49.775Z,1.43
2018-09-27T18:08:17.931Z,1.23
2018-09-27T18:10:46.194Z,1.33
2018-09-27T18:13:14.258Z,1.30
2018-09-27T18:15:42.396Z,1.70
2018-09-27T18:18:10.537Z,1.33
2018-09-27T18:20:38.664Z,1.67
2018-09-27T18:23:06.808Z,1.60
2018-09-27T18:25:34.997Z,1.50
2018-09-27T18:28:03.105Z,1.07
2018-09-27T18:30:31.239Z,1.30
2018-09-27T18:32:59.384Z,1.70
2018-09-27T18:35:27.521Z,1.30
2018-09-27T18:37:55.743Z,2.13
2018-09-27T18:40:23.813Z,1.70
2018-09-27T18:42:51.955Z,1.70
2018-09-27T18:45:20.096Z,1.90
2018-09-27T18:47:48.244Z,1.90
2018-09-27T18:50:16.379Z,2.00
2018-09-27T18:52:44.521Z,2.60
2018-09-27T18:55:12.672Z,1.80
2018-09-27T18:57:40.892Z,2.17
2018-09-27T19:00:09.091Z,1.83
2018-09-27T19:02:37.239Z,1.83
2018-09-27T19:05:05.505Z,2.27
2018-09-27T19:07:33.663Z,2.77
2018-09-27T19:10:01.801Z,2.50
2018-09-27T19:12:29.952Z,2.10
2018-09-27T19:14:58.091Z,2.27
2018-09-27T19:17:26.248Z,2.47
2018-09-27T19:19:54.403Z,2.03
2018-09-27T19:22:22.565Z,2.20
2018-09-27T19:24:50.703Z,2.00
2018-09-27T19:27:18.855Z,1.87
2018-09-27T19:29:47.016Z,2.60
2018-09-27T19:32:15.140Z,1.87
2018-09-27T19:34:43.296Z,2.20
2018-09-27T19:37:11.429Z,2.27
2018-09-27T19:39:39.581Z,1.50
2018-09-27T19:42:07.717Z,2.33
2018-09-27T19:44:35.860Z,2.07
2018-09-27T19:47:03.986Z,2.07
2018-09-27T19:49:32.119Z,1.50
2018-09-27T19:52:00.279Z,2.50
2018-09-27T19:54:28.452Z,2.07
2018-09-27T19:56:56.620Z,2.53
2018-09-27T19:59:24.825Z,1.67
2018-09-27T20:01:52.992Z,2.00
2018-09-27T20:04:21.150Z,1.87
2018-09-27T20:06:49.296Z,2.13
2018-09-27T20:09:17.473Z,2.33
2018-09-27T20:11:45.624Z,2.17
2018-09-27T20:14:13.790Z,2.43
2018-09-27T20:16:42.106Z,1.87
2018-09-27T20:19:10.281Z,2.33
2018-09-27T20:21:38.905Z,1.70
2018-09-27T20:24:07.448Z,1.83
2018-09-27T20:26:35.608Z,1.60
2018-09-27T20:29:03.784Z,2.00
2018-09-27T20:31:31.916Z,1.77
2018-09-27T20:34:00.055Z,2.03
2018-09-27T20:36:28.359Z,1.60
2018-09-27T20:38:56.856Z,1.80
2018-09-27T20:41:25.050Z,1.83
2018-09-27T20:43:53.185Z,1.67
2018-09-27T20:46:21.319Z,1.63
2018-09-27T20:48:49.464Z,1.77
2018-09-27T20:51:17.599Z,1.80
2018-09-27T20:53:45.773Z,2.20
2018-09-27T20:56:13.915Z,1.87
2018-09-27T20:58:42.070Z,1.83
2018-09-27T21:01:10.216Z,2.37
2018-09-27T21:03:38.374Z,1.83
2018-09-27T21:06:06.724Z,2.20
2018-09-27T21:08:34.875Z,2.13
2018-09-27T21:11:03.007Z,1.97
2018-09-27T21:13:31.143Z,1.87
2018-09-27T21:15:59.287Z,2.00
2018-09-27T21:18:27.425Z,1.97
2018-09-27T21:20:55.591Z,1.93
2018-09-27T21:23:23.780Z,1.80
2018-09-27T21:25:51.992Z,1.53
2018-09-27T21:28:20.175Z,1.93
2018-09-27T21:30:48.635Z,1.83
2018-09-27T21:33:16.780Z,1.50
2018-09-27T21:35:44.927Z,1.97
2018-09-27T21:38:13.072Z,1.90
2018-09-27T21:40:41.222Z,2.03
2018-09-27T21:43:09.377Z,2.07
2018-09-27T21:45:37.503Z,1.50
2018-09-27T21:48:05.898Z,2.20
2018-09-27T21:50:34.040Z,1.77
2018-09-27T21:53:02.197Z,2.40
2018-09-27T21:55:30.327Z,2.00
2018-09-27T21:57:58.460Z,2.20
2018-09-27T22:00:26.587Z,1.80
2018-09-27T22:02:54.721Z,2.33
2018-09-27T22:05:22.856Z,2.10
2018-09-27T22:07:51.266Z,2.00
2018-09-27T22:10:19.519Z,2.00
2018-09-27T22:12:47.658Z,2.27
2018-09-27T22:15:15.807Z,2.33
2018-09-27T22:17:43.948Z,2.37
2018-09-27T22:20:12.129Z,2.20
2018-09-27T22:22:40.256Z,2.53
2018-09-27T22:25:08.402Z,2.00
2018-09-27T22:27:36.535Z,2.17
2018-09-27T22:30:04.712Z,2.30
2018-09-27T22:32:32.838Z,2.90
2018-09-27T22:35:00.981Z,2.90
2018-09-27T22:37:29.132Z,3.50
2018-09-27T22:39:57.283Z,2.97
2018-09-27T22:42:25.412Z,2.60
2018-09-27T22:44:53.540Z,2.90
2018-09-27T22:47:21.659Z,2.60
2018-09-27T22:49:49.802Z,2.80
2018-09-27T22:52:17.932Z,3.33
2018-09-27T22:54:46.076Z,2.87
2018-09-27T22:57:14.223Z,2.40
2018-09-27T22:59:42.370Z,3.30
2018-09-27T23:02:10.595Z,2.83
2018-09-27T23:04:38.760Z,2.70
2018-09-27T23:07:06.912Z,3.93
2018-09-27T23:09:35.087Z,3.30
2018-09-27T23:12:03.229Z,3.60
2018-09-27T23:14:31.377Z,2.60
2018-09-27T23:16:59.513Z,2.60
2018-09-27T23:19:27.658Z,3.40
2018-09-27T23:21:56.041Z,2.40
2018-09-27T23:24:24.179Z,2.90
2018-09-27T23:26:52.337Z,2.47
2018-09-27T23:29:20.484Z,3.10
2018-09-27T23:31:48.603Z,2.90
2018-09-27T23:34:16.755Z,2.73
2018-09-27T23:36:44.892Z,2.33
2018-09-27T23:39:13.054Z,2.37
2018-09-27T23:41:41.195Z,2.30
2018-09-27T23:44:09.471Z,2.37
2018-09-27T23:46:37.635Z,2.70
2018-09-27T23:49:05.819Z,2.37
2018-09-27T23:51:33.978Z,2.40
2018-09-27T23:54:02.140Z,2.50
2018-09-27T23:56:30.294Z,3.07
2018-09-27T23:58:58.444Z,2.50
